sensor_id;sensor_type;location;lat;lon;timestamp;P1;durP1;ratioP1;P2;durP2;ratioP2
16416;SDS011;8317;52.186;5.688;2022-07-03T00:01:29;4.18;;;2.40;;
16416;SDS011;8317;52.186;5.688;2022-07-03T00:03:56;4.88;;;2.70;;
16416;SDS011;8317;52.186;5.688;2022-07-03T00:06:25;5.93;;;2.55;;
16416;SDS011;8317;52.186;5.688;2022-07-03T00:08:52;2.38;;;2.08;;
16416;SDS011;8317;52.186;5.688;2022-07-03T00:11:20;2.40;;;2.20;;
16416;SDS011;8317;52.186;5.688;2022-07-03T00:13:47;2.88;;;2.10;;
16416;SDS011;8317;52.186;5.688;2022-07-03T00:16:14;3.75;;;2.25;;
16416;SDS011;8317;52.186;5.688;2022-07-03T00:18:41;5.35;;;2.40;;
16416;SDS011;8317;52.186;5.688;2022-07-03T00:21:09;2.60;;;2.25;;
16416;SDS011;8317;52.186;5.688;2022-07-03T00:23:39;5.65;;;2.20;;
16416;SDS011;8317;52.186;5.688;2022-07-03T00:26:18;4.32;;;2.33;;
16416;SDS011;8317;52.186;5.688;2022-07-03T00:28:46;3.05;;;2.55;;
16416;SDS011;8317;52.186;5.688;2022-07-03T00:31:14;6.93;;;2.88;;
16416;SDS011;8317;52.186;5.688;2022-07-03T00:33:40;2.92;;;2.60;;
16416;SDS011;8317;52.186;5.688;2022-07-03T00:36:08;5.05;;;3.13;;
16416;SDS011;8317;52.186;5.688;2022-07-03T00:38:36;3.13;;;2.50;;
16416;SDS011;8317;52.186;5.688;2022-07-03T00:41:04;6.93;;;3.35;;
16416;SDS011;8317;52.186;5.688;2022-07-03T00:43:31;4.40;;;3.58;;
16416;SDS011;8317;52.186;5.688;2022-07-03T00:46:03;4.18;;;3.78;;
16416;SDS011;8317;52.186;5.688;2022-07-03T00:48:36;7.10;;;3.50;;
16416;SDS011;8317;52.186;5.688;2022-07-03T00:51:04;3.60;;;3.30;;
16416;SDS011;8317;52.186;5.688;2022-07-03T00:53:32;3.58;;;3.25;;
16416;SDS011;8317;52.186;5.688;2022-07-03T00:56:04;3.92;;;3.15;;
16416;SDS011;8317;52.186;5.688;2022-07-03T00:58:32;4.07;;;2.95;;
16416;SDS011;8317;52.186;5.688;2022-07-03T01:01:00;4.22;;;3.33;;
16416;SDS011;8317;52.186;5.688;2022-07-03T01:03:27;5.03;;;3.40;;
16416;SDS011;8317;52.186;5.688;2022-07-03T01:06:00;4.75;;;3.60;;
16416;SDS011;8317;52.186;5.688;2022-07-03T01:08:34;4.15;;;3.53;;
16416;SDS011;8317;52.186;5.688;2022-07-03T01:11:06;8.07;;;3.78;;
16416;SDS011;8317;52.186;5.688;2022-07-03T01:13:38;5.03;;;3.75;;
16416;SDS011;8317;52.186;5.688;2022-07-03T01:16:13;6.05;;;3.70;;
16416;SDS011;8317;52.186;5.688;2022-07-03T01:18:48;4.72;;;4.30;;
16416;SDS011;8317;52.186;5.688;2022-07-03T01:21:23;5.75;;;4.35;;
16416;SDS011;8317;52.186;5.688;2022-07-03T01:24:04;7.28;;;4.28;;
16416;SDS011;8317;52.186;5.688;2022-07-03T01:26:55;5.47;;;4.30;;
16416;SDS011;8317;52.186;5.688;2022-07-03T01:29:26;10.18;;;4.50;;
16416;SDS011;8317;52.186;5.688;2022-07-03T01:31:59;5.38;;;4.18;;
16416;SDS011;8317;52.186;5.688;2022-07-03T01:34:28;4.90;;;4.50;;
16416;SDS011;8317;52.186;5.688;2022-07-03T01:37:00;5.10;;;4.60;;
16416;SDS011;8317;52.186;5.688;2022-07-03T01:39:30;6.03;;;4.70;;
16416;SDS011;8317;52.186;5.688;2022-07-03T01:42:01;6.28;;;4.90;;
16416;SDS011;8317;52.186;5.688;2022-07-03T01:44:29;6.38;;;4.80;;
16416;SDS011;8317;52.186;5.688;2022-07-03T01:46:58;5.43;;;4.93;;
16416;SDS011;8317;52.186;5.688;2022-07-03T01:49:27;7.90;;;5.30;;
16416;SDS011;8317;52.186;5.688;2022-07-03T01:51:56;5.65;;;5.15;;
16416;SDS011;8317;52.186;5.688;2022-07-03T01:54:24;10.40;;;5.47;;
16416;SDS011;8317;52.186;5.688;2022-07-03T01:56:52;8.30;;;5.65;;
16416;SDS011;8317;52.186;5.688;2022-07-03T01:59:21;5.53;;;4.68;;
16416;SDS011;8317;52.186;5.688;2022-07-03T02:01:48;5.50;;;4.80;;
16416;SDS011;8317;52.186;5.688;2022-07-03T02:04:20;5.85;;;4.88;;
16416;SDS011;8317;52.186;5.688;2022-07-03T02:06:52;7.05;;;4.32;;
16416;SDS011;8317;52.186;5.688;2022-07-03T02:09:29;4.72;;;4.30;;
16416;SDS011;8317;52.186;5.688;2022-07-03T02:12:02;4.45;;;4.05;;
16416;SDS011;8317;52.186;5.688;2022-07-03T02:14:36;5.47;;;4.10;;
16416;SDS011;8317;52.186;5.688;2022-07-03T02:17:07;4.75;;;4.20;;
16416;SDS011;8317;52.186;5.688;2022-07-03T02:19:41;4.20;;;3.85;;
16416;SDS011;8317;52.186;5.688;2022-07-03T02:22:14;9.00;;;4.20;;
16416;SDS011;8317;52.186;5.688;2022-07-03T02:24:45;4.82;;;4.10;;
16416;SDS011;8317;52.186;5.688;2022-07-03T02:27:15;4.57;;;4.07;;
16416;SDS011;8317;52.186;5.688;2022-07-03T02:29:49;4.53;;;4.10;;
16416;SDS011;8317;52.186;5.688;2022-07-03T02:32:20;6.15;;;4.00;;
16416;SDS011;8317;52.186;5.688;2022-07-03T02:34:49;4.40;;;4.00;;
16416;SDS011;8317;52.186;5.688;2022-07-03T02:37:22;5.60;;;3.83;;
16416;SDS011;8317;52.186;5.688;2022-07-03T02:39:57;4.43;;;4.03;;
16416;SDS011;8317;52.186;5.688;2022-07-03T02:42:29;4.65;;;4.15;;
16416;SDS011;8317;52.186;5.688;2022-07-03T02:45:03;5.10;;;4.40;;
16416;SDS011;8317;52.186;5.688;2022-07-03T02:47:35;4.80;;;4.35;;
16416;SDS011;8317;52.186;5.688;2022-07-03T02:50:10;5.38;;;4.40;;
16416;SDS011;8317;52.186;5.688;2022-07-03T02:52:42;4.88;;;4.32;;
16416;SDS011;8317;52.186;5.688;2022-07-03T02:55:25;5.88;;;4.55;;
16416;SDS011;8317;52.186;5.688;2022-07-03T02:58:03;5.32;;;4.82;;
16416;SDS011;8317;52.186;5.688;2022-07-03T03:00:38;5.38;;;4.57;;
16416;SDS011;8317;52.186;5.688;2022-07-03T03:03:08;5.40;;;4.82;;
16416;SDS011;8317;52.186;5.688;2022-07-03T03:05:37;5.05;;;4.55;;
16416;SDS011;8317;52.186;5.688;2022-07-03T03:08:11;5.28;;;4.40;;
16416;SDS011;8317;52.186;5.688;2022-07-03T03:10:44;5.75;;;4.75;;
16416;SDS011;8317;52.186;5.688;2022-07-03T03:13:13;4.78;;;4.03;;
16416;SDS011;8317;52.186;5.688;2022-07-03T03:15:48;4.95;;;4.20;;
16416;SDS011;8317;52.186;5.688;2022-07-03T03:18:27;5.20;;;4.70;;
16416;SDS011;8317;52.186;5.688;2022-07-03T03:20:55;6.20;;;4.82;;
16416;SDS011;8317;52.186;5.688;2022-07-03T03:23:30;5.20;;;4.65;;
16416;SDS011;8317;52.186;5.688;2022-07-03T03:26:01;5.78;;;4.50;;
16416;SDS011;8317;52.186;5.688;2022-07-03T03:28:28;5.28;;;4.78;;
16416;SDS011;8317;52.186;5.688;2022-07-03T03:30:56;6.18;;;4.57;;
16416;SDS011;8317;52.186;5.688;2022-07-03T03:33:23;4.60;;;4.20;;
16416;SDS011;8317;52.186;5.688;2022-07-03T03:35:50;5.25;;;4.18;;
16416;SDS011;8317;52.186;5.688;2022-07-03T03:38:17;5.15;;;4.65;;
16416;SDS011;8317;52.186;5.688;2022-07-03T03:40:44;5.88;;;5.07;;
16416;SDS011;8317;52.186;5.688;2022-07-03T03:43:12;5.38;;;4.55;;
16416;SDS011;8317;52.186;5.688;2022-07-03T03:45:39;5.40;;;4.90;;
16416;SDS011;8317;52.186;5.688;2022-07-03T03:48:07;6.68;;;5.05;;
16416;SDS011;8317;52.186;5.688;2022-07-03T03:50:34;6.28;;;4.88;;
16416;SDS011;8317;52.186;5.688;2022-07-03T03:53:01;4.93;;;4.47;;
16416;SDS011;8317;52.186;5.688;2022-07-03T03:55:28;7.53;;;5.00;;
16416;SDS011;8317;52.186;5.688;2022-07-03T03:57:54;6.28;;;5.22;;
16416;SDS011;8317;52.186;5.688;2022-07-03T04:00:21;7.05;;;5.72;;
16416;SDS011;8317;52.186;5.688;2022-07-03T04:02:48;5.43;;;4.93;;
16416;SDS011;8317;52.186;5.688;2022-07-03T04:05:16;5.85;;;5.35;;
16416;SDS011;8317;52.186;5.688;2022-07-03T04:07:43;7.30;;;5.75;;
16416;SDS011;8317;52.186;5.688;2022-07-03T04:10:10;5.40;;;4.90;;
16416;SDS011;8317;52.186;5.688;2022-07-03T04:12:37;7.28;;;4.97;;
16416;SDS011;8317;52.186;5.688;2022-07-03T04:15:04;7.05;;;4.88;;
16416;SDS011;8317;52.186;5.688;2022-07-03T04:17:31;5.00;;;4.55;;
16416;SDS011;8317;52.186;5.688;2022-07-03T04:19:58;4.63;;;4.22;;
16416;SDS011;8317;52.186;5.688;2022-07-03T04:22:26;5.53;;;4.82;;
16416;SDS011;8317;52.186;5.688;2022-07-03T04:24:53;5.40;;;4.90;;
16416;SDS011;8317;52.186;5.688;2022-07-03T04:27:20;6.40;;;5.03;;
16416;SDS011;8317;52.186;5.688;2022-07-03T04:29:47;5.57;;;4.97;;
16416;SDS011;8317;52.186;5.688;2022-07-03T04:32:14;6.80;;;4.85;;
16416;SDS011;8317;52.186;5.688;2022-07-03T04:34:41;5.40;;;4.95;;
16416;SDS011;8317;52.186;5.688;2022-07-03T04:37:07;7.60;;;5.00;;
16416;SDS011;8317;52.186;5.688;2022-07-03T04:39:36;5.13;;;4.63;;
16416;SDS011;8317;52.186;5.688;2022-07-03T04:42:03;5.53;;;4.78;;
16416;SDS011;8317;52.186;5.688;2022-07-03T04:44:30;8.63;;;5.82;;
16416;SDS011;8317;52.186;5.688;2022-07-03T04:46:57;6.55;;;5.70;;
16416;SDS011;8317;52.186;5.688;2022-07-03T04:49:24;7.70;;;6.15;;
16416;SDS011;8317;52.186;5.688;2022-07-03T04:51:51;7.70;;;6.93;;
16416;SDS011;8317;52.186;5.688;2022-07-03T04:54:18;8.60;;;7.53;;
16416;SDS011;8317;52.186;5.688;2022-07-03T04:56:46;11.70;;;8.07;;
16416;SDS011;8317;52.186;5.688;2022-07-03T04:59:13;8.63;;;7.18;;
16416;SDS011;8317;52.186;5.688;2022-07-03T05:01:40;11.50;;;7.22;;
16416;SDS011;8317;52.186;5.688;2022-07-03T05:04:07;8.77;;;7.63;;
16416;SDS011;8317;52.186;5.688;2022-07-03T05:06:33;9.32;;;7.88;;
16416;SDS011;8317;52.186;5.688;2022-07-03T05:09:00;16.55;;;9.23;;
16416;SDS011;8317;52.186;5.688;2022-07-03T05:11:27;16.33;;;8.68;;
16416;SDS011;8317;52.186;5.688;2022-07-03T05:13:55;10.05;;;8.10;;
16416;SDS011;8317;52.186;5.688;2022-07-03T05:16:22;12.57;;;8.98;;
16416;SDS011;8317;52.186;5.688;2022-07-03T05:18:49;13.80;;;9.15;;
16416;SDS011;8317;52.186;5.688;2022-07-03T05:21:16;11.90;;;9.57;;
16416;SDS011;8317;52.186;5.688;2022-07-03T05:23:43;12.30;;;9.27;;
16416;SDS011;8317;52.186;5.688;2022-07-03T05:26:10;12.25;;;8.98;;
16416;SDS011;8317;52.186;5.688;2022-07-03T05:28:36;10.65;;;9.57;;
16416;SDS011;8317;52.186;5.688;2022-07-03T05:31:05;10.77;;;9.65;;
16416;SDS011;8317;52.186;5.688;2022-07-03T05:33:32;10.80;;;9.70;;
16416;SDS011;8317;52.186;5.688;2022-07-03T05:36:00;10.43;;;8.68;;
16416;SDS011;8317;52.186;5.688;2022-07-03T05:38:27;12.07;;;9.10;;
16416;SDS011;8317;52.186;5.688;2022-07-03T05:41:11;10.07;;;8.82;;
16416;SDS011;8317;52.186;5.688;2022-07-03T05:43:38;10.00;;;9.00;;
16416;SDS011;8317;52.186;5.688;2022-07-03T05:46:06;12.15;;;7.97;;
16416;SDS011;8317;52.186;5.688;2022-07-03T05:48:33;9.30;;;8.30;;
16416;SDS011;8317;52.186;5.688;2022-07-03T05:51:00;8.43;;;7.15;;
16416;SDS011;8317;52.186;5.688;2022-07-03T05:53:27;7.35;;;6.28;;
16416;SDS011;8317;52.186;5.688;2022-07-03T05:55:54;8.23;;;5.90;;
16416;SDS011;8317;52.186;5.688;2022-07-03T05:58:21;8.95;;;5.32;;
16416;SDS011;8317;52.186;5.688;2022-07-03T06:00:47;4.97;;;3.75;;
16416;SDS011;8317;52.186;5.688;2022-07-03T06:03:16;5.68;;;3.80;;
16416;SDS011;8317;52.186;5.688;2022-07-03T06:05:43;5.18;;;3.03;;
16416;SDS011;8317;52.186;5.688;2022-07-03T06:08:09;5.00;;;2.90;;
16416;SDS011;8317;52.186;5.688;2022-07-03T06:10:36;5.30;;;3.13;;
16416;SDS011;8317;52.186;5.688;2022-07-03T06:13:03;6.95;;;3.30;;
16416;SDS011;8317;52.186;5.688;2022-07-03T06:15:30;4.50;;;2.97;;
16416;SDS011;8317;52.186;5.688;2022-07-03T06:17:57;5.47;;;2.80;;
16416;SDS011;8317;52.186;5.688;2022-07-03T06:20:25;5.88;;;3.38;;
16416;SDS011;8317;52.186;5.688;2022-07-03T06:22:52;10.50;;;3.20;;
16416;SDS011;8317;52.186;5.688;2022-07-03T06:25:19;6.78;;;2.50;;
16416;SDS011;8317;52.186;5.688;2022-07-03T06:27:46;3.08;;;2.42;;
16416;SDS011;8317;52.186;5.688;2022-07-03T06:30:13;4.50;;;2.78;;
16416;SDS011;8317;52.186;5.688;2022-07-03T06:32:40;4.72;;;2.97;;
16416;SDS011;8317;52.186;5.688;2022-07-03T06:35:07;8.15;;;2.53;;
16416;SDS011;8317;52.186;5.688;2022-07-03T06:37:35;5.85;;;2.40;;
16416;SDS011;8317;52.186;5.688;2022-07-03T06:40:02;4.60;;;2.72;;
16416;SDS011;8317;52.186;5.688;2022-07-03T06:42:30;3.20;;;2.33;;
16416;SDS011;8317;52.186;5.688;2022-07-03T06:44:57;8.25;;;2.47;;
16416;SDS011;8317;52.186;5.688;2022-07-03T06:47:24;3.47;;;2.15;;
16416;SDS011;8317;52.186;5.688;2022-07-03T06:49:51;4.25;;;1.92;;
16416;SDS011;8317;52.186;5.688;2022-07-03T06:52:17;4.80;;;2.13;;
16416;SDS011;8317;52.186;5.688;2022-07-03T06:54:46;2.08;;;1.85;;
16416;SDS011;8317;52.186;5.688;2022-07-03T06:57:13;7.47;;;1.90;;
16416;SDS011;8317;52.186;5.688;2022-07-03T06:59:40;4.72;;;1.95;;
16416;SDS011;8317;52.186;5.688;2022-07-03T07:02:07;5.40;;;2.10;;
16416;SDS011;8317;52.186;5.688;2022-07-03T07:04:34;4.03;;;1.70;;
16416;SDS011;8317;52.186;5.688;2022-07-03T07:07:01;2.83;;;1.80;;
16416;SDS011;8317;52.186;5.688;2022-07-03T07:09:28;6.43;;;2.00;;
16416;SDS011;8317;52.186;5.688;2022-07-03T07:11:56;6.85;;;2.20;;
16416;SDS011;8317;52.186;5.688;2022-07-03T07:14:23;2.88;;;1.83;;
16416;SDS011;8317;52.186;5.688;2022-07-03T07:16:50;5.53;;;1.90;;
16416;SDS011;8317;52.186;5.688;2022-07-03T07:19:17;3.88;;;2.10;;
16416;SDS011;8317;52.186;5.688;2022-07-03T07:21:44;4.47;;;1.98;;
16416;SDS011;8317;52.186;5.688;2022-07-03T07:24:11;3.97;;;2.22;;
16416;SDS011;8317;52.186;5.688;2022-07-03T07:26:37;6.82;;;1.70;;
16416;SDS011;8317;52.186;5.688;2022-07-03T07:29:06;4.53;;;2.38;;
16416;SDS011;8317;52.186;5.688;2022-07-03T07:31:32;3.50;;;2.10;;
16416;SDS011;8317;52.186;5.688;2022-07-03T07:33:59;6.78;;;1.80;;
16416;SDS011;8317;52.186;5.688;2022-07-03T07:36:29;6.20;;;1.85;;
16416;SDS011;8317;52.186;5.688;2022-07-03T07:38:56;4.32;;;1.80;;
16416;SDS011;8317;52.186;5.688;2022-07-03T07:41:23;5.03;;;1.77;;
16416;SDS011;8317;52.186;5.688;2022-07-03T07:43:49;2.03;;;1.40;;
16416;SDS011;8317;52.186;5.688;2022-07-03T07:46:18;3.53;;;1.50;;
16416;SDS011;8317;52.186;5.688;2022-07-03T07:48:44;3.38;;;1.52;;
16416;SDS011;8317;52.186;5.688;2022-07-03T07:51:11;3.83;;;1.85;;
16416;SDS011;8317;52.186;5.688;2022-07-03T07:53:38;3.53;;;1.50;;
16416;SDS011;8317;52.186;5.688;2022-07-03T07:56:05;6.00;;;1.23;;
16416;SDS011;8317;52.186;5.688;2022-07-03T07:58:32;6.55;;;1.65;;
16416;SDS011;8317;52.186;5.688;2022-07-03T08:00:59;2.75;;;1.60;;
16416;SDS011;8317;52.186;5.688;2022-07-03T08:03:44;4.45;;;1.58;;
16416;SDS011;8317;52.186;5.688;2022-07-03T08:06:29;6.80;;;1.70;;
16416;SDS011;8317;52.186;5.688;2022-07-03T08:08:55;5.60;;;2.03;;
16416;SDS011;8317;52.186;5.688;2022-07-03T08:11:22;6.35;;;1.70;;
16416;SDS011;8317;52.186;5.688;2022-07-03T08:13:49;3.33;;;1.60;;
16416;SDS011;8317;52.186;5.688;2022-07-03T08:16:16;3.40;;;1.63;;
16416;SDS011;8317;52.186;5.688;2022-07-03T08:18:44;6.28;;;1.52;;
16416;SDS011;8317;52.186;5.688;2022-07-03T08:21:11;3.60;;;1.60;;
16416;SDS011;8317;52.186;5.688;2022-07-03T08:23:38;4.15;;;2.15;;
16416;SDS011;8317;52.186;5.688;2022-07-03T08:26:05;4.78;;;1.70;;
16416;SDS011;8317;52.186;5.688;2022-07-03T08:28:32;4.63;;;1.50;;
16416;SDS011;8317;52.186;5.688;2022-07-03T08:30:59;4.97;;;2.03;;
16416;SDS011;8317;52.186;5.688;2022-07-03T08:33:26;3.63;;;1.77;;
16416;SDS011;8317;52.186;5.688;2022-07-03T08:35:54;5.70;;;1.50;;
16416;SDS011;8317;52.186;5.688;2022-07-03T08:38:22;3.15;;;1.33;;
16416;SDS011;8317;52.186;5.688;2022-07-03T08:40:55;6.57;;;1.92;;
16416;SDS011;8317;52.186;5.688;2022-07-03T08:43:24;4.45;;;1.40;;
16416;SDS011;8317;52.186;5.688;2022-07-03T08:45:51;4.88;;;1.55;;
16416;SDS011;8317;52.186;5.688;2022-07-03T08:48:19;2.72;;;1.27;;
16416;SDS011;8317;52.186;5.688;2022-07-03T08:50:47;2.38;;;1.10;;
16416;SDS011;8317;52.186;5.688;2022-07-03T08:53:17;1.98;;;1.27;;
16416;SDS011;8317;52.186;5.688;2022-07-03T08:55:45;1.63;;;1.00;;
16416;SDS011;8317;52.186;5.688;2022-07-03T08:58:13;2.55;;;1.02;;
16416;SDS011;8317;52.186;5.688;2022-07-03T09:00:42;4.13;;;1.30;;
16416;SDS011;8317;52.186;5.688;2022-07-03T09:03:09;4.80;;;1.33;;
16416;SDS011;8317;52.186;5.688;2022-07-03T09:05:37;2.55;;;0.90;;
16416;SDS011;8317;52.186;5.688;2022-07-03T09:08:05;1.67;;;1.13;;
16416;SDS011;8317;52.186;5.688;2022-07-03T09:10:34;4.65;;;1.73;;
16416;SDS011;8317;52.186;5.688;2022-07-03T09:13:02;3.33;;;1.10;;
16416;SDS011;8317;52.186;5.688;2022-07-03T09:15:29;3.63;;;1.10;;
16416;SDS011;8317;52.186;5.688;2022-07-03T09:17:57;2.67;;;1.25;;
16416;SDS011;8317;52.186;5.688;2022-07-03T09:20:28;2.83;;;1.25;;
16416;SDS011;8317;52.186;5.688;2022-07-03T09:22:59;3.00;;;1.30;;
16416;SDS011;8317;52.186;5.688;2022-07-03T09:25:36;4.25;;;0.90;;
16416;SDS011;8317;52.186;5.688;2022-07-03T09:28:20;4.13;;;1.27;;
16416;SDS011;8317;52.186;5.688;2022-07-03T09:30:57;2.33;;;0.90;;
16416;SDS011;8317;52.186;5.688;2022-07-03T09:33:25;2.53;;;0.98;;
16416;SDS011;8317;52.186;5.688;2022-07-03T09:35:53;5.05;;;1.17;;
16416;SDS011;8317;52.186;5.688;2022-07-03T09:38:21;3.67;;;1.25;;
16416;SDS011;8317;52.186;5.688;2022-07-03T09:40:50;4.65;;;1.02;;
16416;SDS011;8317;52.186;5.688;2022-07-03T09:43:24;4.03;;;1.50;;
16416;SDS011;8317;52.186;5.688;2022-07-03T09:45:54;1.77;;;1.00;;
16416;SDS011;8317;52.186;5.688;2022-07-03T09:48:26;4.70;;;1.38;;
16416;SDS011;8317;52.186;5.688;2022-07-03T09:51:11;6.15;;;1.40;;
16416;SDS011;8317;52.186;5.688;2022-07-03T09:53:43;3.22;;;1.58;;
16416;SDS011;8317;52.186;5.688;2022-07-03T09:56:13;3.67;;;1.80;;
16416;SDS011;8317;52.186;5.688;2022-07-03T09:58:41;3.67;;;1.25;;
16416;SDS011;8317;52.186;5.688;2022-07-03T10:01:24;3.15;;;0.90;;
16416;SDS011;8317;52.186;5.688;2022-07-03T10:03:51;3.05;;;1.10;;
16416;SDS011;8317;52.186;5.688;2022-07-03T10:06:19;4.28;;;1.10;;
16416;SDS011;8317;52.186;5.688;2022-07-03T10:08:46;2.40;;;1.20;;
16416;SDS011;8317;52.186;5.688;2022-07-03T10:11:17;2.10;;;1.10;;
16416;SDS011;8317;52.186;5.688;2022-07-03T10:13:44;4.25;;;1.10;;
16416;SDS011;8317;52.186;5.688;2022-07-03T10:16:12;3.00;;;1.10;;
16416;SDS011;8317;52.186;5.688;2022-07-03T10:18:40;1.10;;;1.00;;
16416;SDS011;8317;52.186;5.688;2022-07-03T10:21:13;4.18;;;1.20;;
16416;SDS011;8317;52.186;5.688;2022-07-03T10:23:41;2.97;;;1.20;;
16416;SDS011;8317;52.186;5.688;2022-07-03T10:26:10;2.22;;;1.00;;
16416;SDS011;8317;52.186;5.688;2022-07-03T10:28:39;2.50;;;0.88;;
16416;SDS011;8317;52.186;5.688;2022-07-03T10:31:06;2.22;;;0.90;;
16416;SDS011;8317;52.186;5.688;2022-07-03T10:33:34;2.70;;;1.10;;
16416;SDS011;8317;52.186;5.688;2022-07-03T10:36:03;4.95;;;1.20;;
16416;SDS011;8317;52.186;5.688;2022-07-03T10:38:36;2.53;;;0.90;;
16416;SDS011;8317;52.186;5.688;2022-07-03T10:41:06;3.35;;;1.17;;
16416;SDS011;8317;52.186;5.688;2022-07-03T10:43:56;2.20;;;1.08;;
16416;SDS011;8317;52.186;5.688;2022-07-03T10:46:41;1.88;;;0.90;;
16416;SDS011;8317;52.186;5.688;2022-07-03T10:49:08;5.07;;;1.27;;
16416;SDS011;8317;52.186;5.688;2022-07-03T10:51:52;2.88;;;0.95;;
16416;SDS011;8317;52.186;5.688;2022-07-03T10:54:21;2.80;;;1.05;;
16416;SDS011;8317;52.186;5.688;2022-07-03T10:57:04;2.88;;;1.05;;
16416;SDS011;8317;52.186;5.688;2022-07-03T11:02:39;2.25;;;0.93;;
16416;SDS011;8317;52.186;5.688;2022-07-03T11:05:10;2.72;;;1.00;;
16416;SDS011;8317;52.186;5.688;2022-07-03T11:07:42;3.00;;;1.00;;
16416;SDS011;8317;52.186;5.688;2022-07-03T11:10:29;3.72;;;1.20;;
16416;SDS011;8317;52.186;5.688;2022-07-03T11:12:57;3.13;;;0.93;;
16416;SDS011;8317;52.186;5.688;2022-07-03T11:15:26;4.13;;;1.23;;
16416;SDS011;8317;52.186;5.688;2022-07-03T11:18:09;4.13;;;1.75;;
16416;SDS011;8317;52.186;5.688;2022-07-03T11:21:06;2.70;;;1.20;;
16416;SDS011;8317;52.186;5.688;2022-07-03T11:24:02;3.15;;;1.20;;
16416;SDS011;8317;52.186;5.688;2022-07-03T11:27:12;2.45;;;0.88;;
16416;SDS011;8317;52.186;5.688;2022-07-03T11:29:47;1.08;;;0.70;;
16416;SDS011;8317;52.186;5.688;2022-07-03T11:38:16;2.67;;;0.95;;
16416;SDS011;8317;52.186;5.688;2022-07-03T11:40:45;2.42;;;0.80;;
16416;SDS011;8317;52.186;5.688;2022-07-03T11:43:14;2.55;;;1.02;;
16416;SDS011;8317;52.186;5.688;2022-07-03T11:45:41;1.00;;;0.70;;
16416;SDS011;8317;52.186;5.688;2022-07-03T11:48:11;1.35;;;0.70;;
16416;SDS011;8317;52.186;5.688;2022-07-03T11:50:40;2.15;;;0.95;;
16416;SDS011;8317;52.186;5.688;2022-07-03T11:53:18;3.13;;;0.90;;
16416;SDS011;8317;52.186;5.688;2022-07-03T11:55:46;2.53;;;1.20;;
16416;SDS011;8317;52.186;5.688;2022-07-03T11:58:14;0.90;;;0.90;;
16416;SDS011;8317;52.186;5.688;2022-07-03T12:00:40;2.13;;;1.15;;
16416;SDS011;8317;52.186;5.688;2022-07-03T12:03:07;4.20;;;1.60;;
16416;SDS011;8317;52.186;5.688;2022-07-03T12:05:48;2.78;;;1.48;;
16416;SDS011;8317;52.186;5.688;2022-07-03T12:08:20;1.40;;;1.10;;
16416;SDS011;8317;52.186;5.688;2022-07-03T12:10:49;3.30;;;1.20;;
16416;SDS011;8317;52.186;5.688;2022-07-03T12:13:19;2.08;;;1.27;;
16416;SDS011;8317;52.186;5.688;2022-07-03T12:15:46;2.13;;;1.17;;
16416;SDS011;8317;52.186;5.688;2022-07-03T12:18:15;2.08;;;1.40;;
16416;SDS011;8317;52.186;5.688;2022-07-03T12:20:42;3.00;;;1.50;;
16416;SDS011;8317;52.186;5.688;2022-07-03T12:23:09;3.47;;;1.60;;
16416;SDS011;8317;52.186;5.688;2022-07-03T12:25:38;1.80;;;1.20;;
16416;SDS011;8317;52.186;5.688;2022-07-03T12:28:06;1.80;;;1.25;;
16416;SDS011;8317;52.186;5.688;2022-07-03T12:30:34;2.33;;;1.60;;
16416;SDS011;8317;52.186;5.688;2022-07-03T12:33:02;1.40;;;1.30;;
16416;SDS011;8317;52.186;5.688;2022-07-03T12:35:32;2.20;;;1.30;;
16416;SDS011;8317;52.186;5.688;2022-07-03T12:37:58;2.97;;;2.00;;
16416;SDS011;8317;52.186;5.688;2022-07-03T12:40:25;1.77;;;1.40;;
16416;SDS011;8317;52.186;5.688;2022-07-03T12:42:52;3.35;;;1.90;;
16416;SDS011;8317;52.186;5.688;2022-07-03T12:45:21;2.70;;;1.50;;
16416;SDS011;8317;52.186;5.688;2022-07-03T12:47:59;1.70;;;1.60;;
16416;SDS011;8317;52.186;5.688;2022-07-03T12:53:10;4.22;;;1.60;;
16416;SDS011;8317;52.186;5.688;2022-07-03T12:55:51;3.28;;;1.45;;
16416;SDS011;8317;52.186;5.688;2022-07-03T12:58:22;4.28;;;1.75;;
16416;SDS011;8317;52.186;5.688;2022-07-03T13:01:06;5.75;;;1.60;;
16416;SDS011;8317;52.186;5.688;2022-07-03T13:03:50;3.70;;;1.85;;
16416;SDS011;8317;52.186;5.688;2022-07-03T13:06:18;2.17;;;1.60;;
16416;SDS011;8317;52.186;5.688;2022-07-03T13:08:53;3.10;;;1.67;;
16416;SDS011;8317;52.186;5.688;2022-07-03T13:11:25;3.72;;;2.17;;
16416;SDS011;8317;52.186;5.688;2022-07-03T13:13:53;4.90;;;1.88;;
16416;SDS011;8317;52.186;5.688;2022-07-03T13:16:29;5.05;;;2.10;;
16416;SDS011;8317;52.186;5.688;2022-07-03T13:18:56;1.55;;;1.40;;
16416;SDS011;8317;52.186;5.688;2022-07-03T13:21:25;3.88;;;1.70;;
16416;SDS011;8317;52.186;5.688;2022-07-03T13:23:52;2.35;;;1.48;;
16416;SDS011;8317;52.186;5.688;2022-07-03T13:26:19;3.28;;;1.60;;
16416;SDS011;8317;52.186;5.688;2022-07-03T13:28:46;2.38;;;1.80;;
16416;SDS011;8317;52.186;5.688;2022-07-03T13:31:13;4.22;;;1.80;;
16416;SDS011;8317;52.186;5.688;2022-07-03T13:33:40;2.60;;;1.48;;
16416;SDS011;8317;52.186;5.688;2022-07-03T13:36:06;3.40;;;1.80;;
16416;SDS011;8317;52.186;5.688;2022-07-03T13:38:35;3.47;;;1.65;;
16416;SDS011;8317;52.186;5.688;2022-07-03T13:41:02;4.03;;;1.88;;
16416;SDS011;8317;52.186;5.688;2022-07-03T13:43:28;2.65;;;1.85;;
16416;SDS011;8317;52.186;5.688;2022-07-03T13:45:55;2.63;;;2.17;;
16416;SDS011;8317;52.186;5.688;2022-07-03T13:48:22;4.15;;;2.40;;
16416;SDS011;8317;52.186;5.688;2022-07-03T13:50:49;3.35;;;1.92;;
16416;SDS011;8317;52.186;5.688;2022-07-03T13:53:16;3.08;;;1.90;;
16416;SDS011;8317;52.186;5.688;2022-07-03T13:55:44;2.63;;;1.45;;
16416;SDS011;8317;52.186;5.688;2022-07-03T13:58:12;3.58;;;1.73;;
16416;SDS011;8317;52.186;5.688;2022-07-03T14:00:39;3.38;;;1.50;;
16416;SDS011;8317;52.186;5.688;2022-07-03T14:03:06;2.40;;;1.50;;
16416;SDS011;8317;52.186;5.688;2022-07-03T14:05:32;1.80;;;1.70;;
16416;SDS011;8317;52.186;5.688;2022-07-03T14:08:00;2.72;;;1.45;;
16416;SDS011;8317;52.186;5.688;2022-07-03T14:10:27;2.33;;;1.48;;
16416;SDS011;8317;52.186;5.688;2022-07-03T14:12:56;3.00;;;1.58;;
16416;SDS011;8317;52.186;5.688;2022-07-03T14:15:22;4.00;;;1.60;;
16416;SDS011;8317;52.186;5.688;2022-07-03T14:17:49;5.50;;;1.70;;
16416;SDS011;8317;52.186;5.688;2022-07-03T14:20:16;2.95;;;1.70;;
16416;SDS011;8317;52.186;5.688;2022-07-03T14:22:43;5.43;;;1.80;;
16416;SDS011;8317;52.186;5.688;2022-07-03T14:25:10;3.05;;;1.95;;
16416;SDS011;8317;52.186;5.688;2022-07-03T14:27:37;2.70;;;2.10;;
16416;SDS011;8317;52.186;5.688;2022-07-03T14:30:23;4.25;;;2.17;;
16416;SDS011;8317;52.186;5.688;2022-07-03T14:33:07;2.25;;;1.83;;
16416;SDS011;8317;52.186;5.688;2022-07-03T14:35:35;3.13;;;1.88;;
16416;SDS011;8317;52.186;5.688;2022-07-03T14:38:02;4.03;;;1.60;;
16416;SDS011;8317;52.186;5.688;2022-07-03T14:40:29;2.65;;;1.40;;
16416;SDS011;8317;52.186;5.688;2022-07-03T14:42:56;3.03;;;1.10;;
16416;SDS011;8317;52.186;5.688;2022-07-03T14:45:24;1.88;;;1.40;;
16416;SDS011;8317;52.186;5.688;2022-07-03T14:47:51;3.35;;;1.50;;
16416;SDS011;8317;52.186;5.688;2022-07-03T14:50:18;3.75;;;1.38;;
16416;SDS011;8317;52.186;5.688;2022-07-03T14:52:45;2.53;;;1.40;;
16416;SDS011;8317;52.186;5.688;2022-07-03T14:55:12;2.40;;;1.40;;
16416;SDS011;8317;52.186;5.688;2022-07-03T14:57:41;4.35;;;1.30;;
16416;SDS011;8317;52.186;5.688;2022-07-03T15:00:13;4.05;;;1.48;;
16416;SDS011;8317;52.186;5.688;2022-07-03T15:02:44;3.67;;;1.85;;
16416;SDS011;8317;52.186;5.688;2022-07-03T15:05:15;3.90;;;1.48;;
16416;SDS011;8317;52.186;5.688;2022-07-03T15:07:43;3.92;;;1.33;;
16416;SDS011;8317;52.186;5.688;2022-07-03T15:10:23;2.72;;;1.50;;
16416;SDS011;8317;52.186;5.688;2022-07-03T15:12:50;7.38;;;2.25;;
16416;SDS011;8317;52.186;5.688;2022-07-03T15:15:19;4.30;;;1.42;;
16416;SDS011;8317;52.186;5.688;2022-07-03T15:17:49;2.28;;;1.30;;
16416;SDS011;8317;52.186;5.688;2022-07-03T15:20:17;4.57;;;1.50;;
16416;SDS011;8317;52.186;5.688;2022-07-03T15:22:46;2.83;;;1.40;;
16416;SDS011;8317;52.186;5.688;2022-07-03T15:25:16;1.58;;;1.25;;
16416;SDS011;8317;52.186;5.688;2022-07-03T15:27:45;4.57;;;1.38;;